Weather at Hangar Haciendas Airpark

Public forecast

Using degrees Fahrenheit for public forecast. Weather courtesy of forecast.io.

Closest aviation weather report (METAR) to Hangar Haciendas Airpark

Closest report is Phoenix Sky Harbor International Airport, 7.8 nm (14.4 km) NE.

2024/06/15 17:51 (retrieved 11 minutes ago)

KPHX 151751Z 00000KT 10SM CLR 38/02 A2976 RMK AO2 SLP052 T03830017 10383 20278 58008

Closest aviation forecast (TAF) to Hangar Haciendas Airpark

Closest forecast is Phoenix Sky Harbor International Airport, 7.8 nm (14.4 km) NE.

2024/06/15 18:28 (retrieved 0 seconds ago)

TAF KPHX 151726Z 1518/1624 VRB05KT P6SM SKC TEMPO 1520/1523 26006KT FM152300 27010G18KT P6SM SKC FM160500 27008KT P6SM SKC FM161000 11006KT P6SM SKC FM161700 17006KT P6SM SKC FM162000 25011G21KT P6SM SKC